Time;durP1;ratioP1;P1;durP2;ratioP2;P2;SDS_P1;SDS_P2;PMS_P1;PMS_P2;Temp;Humidity;BMP_temperature;BMP_pressure;BME280_temperature;BME280_humidity;BME280_pressure;Samples;Min_cycle;Max_cycle;Signal;HPM_P1;HPM_P2
2021/09/08 00:00:14;;;;;;;28.15;19.42;;;;;;;;;;4991938;28;20183;-72
2021/09/08 00:02:39;;;;;;;24.48;17.55;;;;;;;;;;4998123;28;20202;-72
2021/09/08 00:05:07;;;;;;;24.48;16.80;;;;;;;;;;4991227;28;20226;-71
2021/09/08 00:07:33;;;;;;;27.35;18.65;;;;;;;;;;4997134;28;20222;-71
2021/09/08 00:09:58;;;;;;;25.10;19.05;;;;;;;;;;4991617;28;20187;-72
2021/09/08 00:12:23;;;;;;;27.67;18.08;;;;;;;;;;4999726;28;20257;-72
2021/09/08 00:14:49;;;;;;;30.92;19.02;;;;;;;;;;4989140;28;20249;-72
2021/09/08 00:17:14;;;;;;;26.20;17.55;;;;;;;;;;5009780;28;20208;-72
2021/09/08 00:19:39;;;;;;;25.17;17.60;;;;;;;;;;4985790;28;20202;-72
2021/09/08 00:22:05;;;;;;;25.70;18.05;;;;;;;;;;4994707;28;20221;-71
2021/09/08 00:24:30;;;;;;;28.77;18.40;;;;;;;;;;4985905;28;20564;-71
2021/09/08 00:26:56;;;;;;;25.13;17.75;;;;;;;;;;4991960;28;20218;-71
2021/09/08 00:29:21;;;;;;;25.35;17.20;;;;;;;;;;4993761;28;20250;-72
2021/09/08 00:31:46;;;;;;;28.83;18.50;;;;;;;;;;4987011;28;20202;-72
2021/09/08 00:34:12;;;;;;;27.10;18.35;;;;;;;;;;4995602;28;20604;-72
2021/09/08 00:36:38;;;;;;;26.48;19.20;;;;;;;;;;4987966;28;20195;-71
2021/09/08 00:39:03;;;;;;;24.35;17.65;;;;;;;;;;4992525;28;20245;-71
2021/09/08 00:41:32;;;;;;;23.27;18.08;;;;;;;;;;4987290;28;20220;-71
2021/09/08 00:44:11;;;;;;;30.20;19.25;;;;;;;;;;4990930;28;20182;-71
2021/09/08 00:46:39;;;;;;;27.75;18.77;;;;;;;;;;4988086;28;20244;-72
2021/09/08 00:49:04;;;;;;;29.45;18.90;;;;;;;;;;4992824;28;20194;-71
2021/09/08 00:51:31;;;;;;;27.90;18.92;;;;;;;;;;4988750;28;20206;-71
2021/09/08 00:53:58;;;;;;;26.27;18.77;;;;;;;;;;4993477;28;20193;-72
2021/09/08 00:56:25;;;;;;;30.23;19.88;;;;;;;;;;4990273;28;20291;-72
2021/09/08 00:58:50;;;;;;;29.85;20.02;;;;;;;;;;4993321;28;20211;-72
2021/09/08 01:01:15;;;;;;;24.75;18.27;;;;;;;;;;4994925;28;20187;-71
2021/09/08 01:03:41;;;;;;;29.73;19.50;;;;;;;;;;4986008;28;20202;-71
2021/09/08 01:06:06;;;;;;;31.42;19.98;;;;;;;;;;4960176;28;1043531;-72
2021/09/08 01:08:31;;;;;;;30.80;20.20;;;;;;;;;;4983931;28;20485;-71
2021/09/08 01:10:58;;;;;;;33.20;20.98;;;;;;;;;;4996772;28;21300;-72
2021/09/08 01:13:23;;;;;;;26.77;19.13;;;;;;;;;;4987843;28;20542;-72
2021/09/08 01:16:01;;;;;;;26.73;18.98;;;;;;;;;;4995142;28;20186;-71
2021/09/08 01:18:27;;;;;;;28.10;19.67;;;;;;;;;;4986733;28;20234;-71
2021/09/08 01:20:53;;;;;;;24.50;18.65;;;;;;;;;;4994064;28;20270;-71
2021/09/08 01:23:18;;;;;;;26.50;18.70;;;;;;;;;;4988135;28;20191;-72
2021/09/08 01:25:43;;;;;;;28.48;19.13;;;;;;;;;;4993815;28;20244;-72
2021/09/08 01:28:09;;;;;;;26.40;18.55;;;;;;;;;;4985425;28;20311;-72
2021/09/08 01:30:34;;;;;;;28.42;19.08;;;;;;;;;;4994815;28;20274;-72
2021/09/08 01:33:01;;;;;;;29.73;19.30;;;;;;;;;;4996424;28;20205;-72
2021/09/08 01:35:27;;;;;;;24.27;18.20;;;;;;;;;;4985142;28;20397;-72
2021/09/08 01:37:52;;;;;;;27.27;18.27;;;;;;;;;;4994670;28;20639;-72
2021/09/08 01:40:18;;;;;;;27.23;18.63;;;;;;;;;;4987377;28;20195;-71
2021/09/08 01:42:45;;;;;;;27.10;19.85;;;;;;;;;;4994694;28;20187;-71
2021/09/08 01:45:15;;;;;;;29.38;19.75;;;;;;;;;;4986873;28;20559;-71
2021/09/08 01:47:41;;;;;;;31.45;21.27;;;;;;;;;;4990658;28;20309;-71
2021/09/08 01:50:08;;;;;;;30.75;20.83;;;;;;;;;;4987912;28;20785;-71
2021/09/08 01:52:35;;;;;;;30.63;20.15;;;;;;;;;;4993596;28;20273;-71
2021/09/08 01:55:00;;;;;;;30.85;20.92;;;;;;;;;;4986941;28;20750;-72
2021/09/08 01:57:25;;;;;;;30.95;20.38;;;;;;;;;;4997528;28;20371;-72
2021/09/08 01:59:51;;;;;;;28.58;20.05;;;;;;;;;;4987949;28;20194;-72
2021/09/08 02:02:16;;;;;;;30.77;20.73;;;;;;;;;;4997647;28;20195;-72
2021/09/08 02:04:41;;;;;;;32.05;21.40;;;;;;;;;;4997061;28;20531;-72
2021/09/08 02:07:07;;;;;;;31.02;20.30;;;;;;;;;;4986307;28;20207;-72
2021/09/08 02:09:32;;;;;;;29.52;20.83;;;;;;;;;;4996188;28;20186;-72
2021/09/08 02:11:58;;;;;;;31.75;22.20;;;;;;;;;;4988431;28;20542;-71
2021/09/08 02:14:23;;;;;;;29.08;20.75;;;;;;;;;;4996845;28;20544;-72
2021/09/08 02:16:49;;;;;;;31.58;21.17;;;;;;;;;;4986542;28;20592;-72
2021/09/08 02:19:14;;;;;;;31.45;20.48;;;;;;;;;;4996744;28;21034;-73
2021/09/08 02:21:39;;;;;;;28.08;19.80;;;;;;;;;;4989383;28;20195;-72
2021/09/08 02:24:05;;;;;;;31.73;21.13;;;;;;;;;;4994651;28;20221;-72
2021/09/08 02:26:31;;;;;;;31.77;21.08;;;;;;;;;;4989051;28;20301;-72
2021/09/08 02:28:56;;;;;;;30.40;21.17;;;;;;;;;;4998166;28;20207;-74
2021/09/08 02:31:21;;;;;;;31.20;20.27;;;;;;;;;;4987649;28;20195;-72
2021/09/08 02:33:47;;;;;;;31.70;20.45;;;;;;;;;;4995732;28;20282;-73
2021/09/08 02:36:12;;;;;;;30.40;20.80;;;;;;;;;;4996995;28;20685;-72
2021/09/08 02:38:38;;;;;;;32.83;22.00;;;;;;;;;;4987826;28;20517;-72
2021/09/08 02:41:08;;;;;;;32.08;20.35;;;;;;;;;;4996893;28;20617;-72
2021/09/08 02:43:37;;;;;;;29.65;21.20;;;;;;;;;;4987445;28;20187;-73
2021/09/08 02:46:03;;;;;;;30.95;20.92;;;;;;;;;;4994929;28;20210;-73
2021/09/08 02:48:30;;;;;;;31.88;21.02;;;;;;;;;;4992060;28;20236;-72
2021/09/08 02:50:56;;;;;;;37.63;21.98;;;;;;;;;;4997701;28;20375;-73
2021/09/08 02:53:21;;;;;;;34.55;21.50;;;;;;;;;;4985383;28;20293;-72
2021/09/08 02:55:46;;;;;;;31.85;21.52;;;;;;;;;;4995272;28;20601;-72
2021/09/08 02:58:12;;;;;;;30.38;20.67;;;;;;;;;;4984728;28;20649;-73
2021/09/08 03:00:37;;;;;;;31.00;22.63;;;;;;;;;;4997084;28;20187;-72
2021/09/08 03:03:03;;;;;;;36.25;22.15;;;;;;;;;;4988752;28;20185;-72
2021/09/08 03:05:28;;;;;;;37.88;21.98;;;;;;;;;;4994530;28;20304;-72
2021/09/08 03:07:53;;;;;;;32.67;22.52;;;;;;;;;;4996259;28;20678;-72
2021/09/08 03:10:19;;;;;;;30.25;21.92;;;;;;;;;;4986765;28;20523;-72
2021/09/08 03:12:44;;;;;;;30.75;21.77;;;;;;;;;;4995336;28;20206;-72
2021/09/08 03:15:10;;;;;;;32.03;21.00;;;;;;;;;;4988278;28;20194;-72
2021/09/08 03:17:35;;;;;;;29.23;20.67;;;;;;;;;;5013935;28;20678;-72
2021/09/08 03:20:01;;;;;;;30.35;19.83;;;;;;;;;;4988652;28;20937;-72
2021/09/08 03:22:26;;;;;;;32.70;21.42;;;;;;;;;;4994468;28;20190;-72
2021/09/08 03:24:51;;;;;;;34.78;22.02;;;;;;;;;;4989256;28;20549;-72
2021/09/08 03:27:17;;;;;;;30.38;21.30;;;;;;;;;;4998047;28;20261;-73
2021/09/08 03:29:42;;;;;;;31.60;21.73;;;;;;;;;;4988285;28;20314;-72
2021/09/08 03:32:07;;;;;;;30.95;20.77;;;;;;;;;;4996728;28;20226;-72
2021/09/08 03:34:33;;;;;;;34.08;23.20;;;;;;;;;;4995729;28;20270;-73
2021/09/08 03:36:58;;;;;;;27.98;19.10;;;;;;;;;;4992040;28;20560;-73
2021/09/08 03:39:23;;;;;;;32.05;21.15;;;;;;;;;;4996259;28;20553;-73
2021/09/08 03:41:49;;;;;;;33.25;22.13;;;;;;;;;;4989981;28;20210;-71
2021/09/08 03:44:14;;;;;;;30.73;21.50;;;;;;;;;;4996688;28;20191;-72
2021/09/08 03:46:39;;;;;;;30.33;22.20;;;;;;;;;;4986960;28;20247;-71
2021/09/08 03:49:05;;;;;;;33.55;21.63;;;;;;;;;;4995591;28;20265;-71
2021/09/08 03:51:30;;;;;;;31.27;21.42;;;;;;;;;;4991183;28;20286;-72
2021/09/08 03:53:58;;;;;;;32.55;21.30;;;;;;;;;;4995500;28;20178;-71
2021/09/08 03:56:24;;;;;;;32.97;22.73;;;;;;;;;;4987825;28;20194;-71
2021/09/08 03:58:49;;;;;;;30.90;22.70;;;;;;;;;;4995970;28;20207;-71
2021/09/08 04:01:15;;;;;;;32.40;21.38;;;;;;;;;;4986222;28;20221;-72
2021/09/08 04:03:40;;;;;;;32.67;22.33;;;;;;;;;;4998786;28;20195;-72
2021/09/08 04:06:05;;;;;;;31.65;21.65;;;;;;;;;;4994369;28;20611;-72
2021/09/08 04:08:31;;;;;;;31.25;21.23;;;;;;;;;;4992474;28;20233;-72
2021/09/08 04:10:56;;;;;;;35.53;22.38;;;;;;;;;;4994776;28;20245;-72
2021/09/08 04:13:21;;;;;;;32.65;20.73;;;;;;;;;;4986405;28;20183;-72
2021/09/08 04:15:47;;;;;;;31.40;21.38;;;;;;;;;;4992989;28;20190;-72
2021/09/08 04:18:12;;;;;;;32.72;21.35;;;;;;;;;;4987912;28;20193;-73
2021/09/08 04:20:37;;;;;;;32.97;21.42;;;;;;;;;;4995155;28;20194;-72
2021/09/08 04:23:03;;;;;;;32.90;21.52;;;;;;;;;;4987746;28;20752;-69
2021/09/08 04:25:28;;;;;;;32.28;21.38;;;;;;;;;;4995700;28;20280;-72
2021/09/08 04:27:53;;;;;;;35.33;21.95;;;;;;;;;;4986291;28;20218;-72
2021/09/08 04:30:19;;;;;;;35.17;21.95;;;;;;;;;;4992804;28;20186;-72
2021/09/08 04:32:44;;;;;;;35.30;23.00;;;;;;;;;;4988737;28;20692;-72
2021/09/08 04:35:09;;;;;;;32.97;21.63;;;;;;;;;;4992015;28;20190;-72
2021/09/08 04:37:36;;;;;;;29.88;21.73;;;;;;;;;;4994990;28;20488;-72
2021/09/08 04:40:02;;;;;;;36.47;21.33;;;;;;;;;;4985346;28;20311;-72
2021/09/08 04:42:27;;;;;;;32.22;21.42;;;;;;;;;;4995333;28;20341;-73
2021/09/08 04:44:52;;;;;;;35.63;22.50;;;;;;;;;;4985575;28;20190;-72
2021/09/08 04:47:18;;;;;;;33.53;21.83;;;;;;;;;;4995556;28;20198;-72
2021/09/08 04:49:43;;;;;;;29.55;21.55;;;;;;;;;;4989638;28;20601;-72
2021/09/08 04:52:08;;;;;;;35.38;22.13;;;;;;;;;;4998457;28;20736;-72
2021/09/08 04:54:34;;;;;;;33.70;22.48;;;;;;;;;;4987130;28;20842;-72
2021/09/08 04:56:59;;;;;;;32.90;22.30;;;;;;;;;;4994480;28;20271;-72
2021/09/08 04:59:24;;;;;;;31.15;22.13;;;;;;;;;;4981776;28;23702;-72
2021/09/08 05:01:50;;;;;;;37.55;23.00;;;;;;;;;;4992996;28;20202;-72
2021/09/08 05:04:15;;;;;;;30.70;22.85;;;;;;;;;;4994095;28;20647;-72
2021/09/08 05:06:41;;;;;;;32.33;22.77;;;;;;;;;;4985688;28;20210;-72
2021/09/08 05:09:06;;;;;;;33.50;22.95;;;;;;;;;;4992485;28;20187;-72
2021/09/08 05:11:31;;;;;;;34.63;23.10;;;;;;;;;;4984622;28;20203;-72
2021/09/08 05:13:57;;;;;;;35.00;23.42;;;;;;;;;;4993873;28;20192;-72
2021/09/08 05:16:22;;;;;;;35.17;22.58;;;;;;;;;;4988435;28;20206;-72
2021/09/08 05:18:47;;;;;;;33.90;22.52;;;;;;;;;;4995464;28;20649;-72
2021/09/08 05:21:13;;;;;;;33.08;22.27;;;;;;;;;;4985347;28;20675;-72
2021/09/08 05:23:38;;;;;;;34.10;24.40;;;;;;;;;;4996386;28;20821;-72
2021/09/08 05:26:05;;;;;;;34.90;24.02;;;;;;;;;;4987565;28;20644;-72
2021/09/08 05:28:31;;;;;;;34.65;23.80;;;;;;;;;;4996010;28;20218;-72
2021/09/08 05:30:57;;;;;;;41.25;26.08;;;;;;;;;;4991089;28;20190;-72
2021/09/08 05:33:22;;;;;;;41.03;25.55;;;;;;;;;;4996726;28;20183;-71
2021/09/08 05:35:48;;;;;;;37.28;25.02;;;;;;;;;;5013635;28;20209;-71
2021/09/08 05:38:13;;;;;;;37.97;24.50;;;;;;;;;;4988143;28;20191;-71
2021/09/08 05:40:38;;;;;;;33.05;23.38;;;;;;;;;;4997119;28;20191;-74
2021/09/08 05:43:04;;;;;;;39.17;23.83;;;;;;;;;;4993102;28;20191;-72
2021/09/08 05:45:29;;;;;;;37.38;24.67;;;;;;;;;;4997796;28;20191;-72
2021/09/08 05:47:54;;;;;;;34.70;23.33;;;;;;;;;;4991948;28;20234;-72
2021/09/08 05:50:20;;;;;;;36.88;22.90;;;;;;;;;;4997491;28;20210;-72
2021/09/08 05:52:45;;;;;;;36.90;23.13;;;;;;;;;;4992990;28;20199;-72
2021/09/08 05:55:11;;;;;;;33.50;22.25;;;;;;;;;;4999341;28;20215;-72
2021/09/08 05:57:36;;;;;;;31.65;22.08;;;;;;;;;;4991728;28;20269;-72
2021/09/08 06:00:04;;;;;;;33.80;22.08;;;;;;;;;;4999370;28;20192;-72
2021/09/08 06:02:29;;;;;;;31.15;22.42;;;;;;;;;;4996135;28;20197;-73
2021/09/08 06:04:55;;;;;;;37.67;22.40;;;;;;;;;;4991962;28;20273;-71
2021/09/08 06:07:20;;;;;;;32.83;22.35;;;;;;;;;;4997547;28;20207;-72
2021/09/08 06:09:45;;;;;;;30.33;20.80;;;;;;;;;;4986997;28;20642;-72
2021/09/08 06:12:10;;;;;;;33.20;21.08;;;;;;;;;;4995702;28;20187;-73
2021/09/08 06:14:36;;;;;;;28.85;20.65;;;;;;;;;;4990199;28;21051;-72
2021/09/08 06:17:01;;;;;;;30.85;20.75;;;;;;;;;;4996159;28;20266;-72
2021/09/08 06:19:27;;;;;;;30.05;20.55;;;;;;;;;;4984480;28;20201;-74
2021/09/08 06:21:52;;;;;;;27.80;19.92;;;;;;;;;;4996457;28;20217;-73
2021/09/08 06:24:18;;;;;;;28.42;19.23;;;;;;;;;;4988592;28;20179;-72
2021/09/08 06:26:43;;;;;;;32.95;19.80;;;;;;;;;;5010340;28;20667;-73
2021/09/08 06:29:08;;;;;;;29.13;20.60;;;;;;;;;;4996761;28;20186;-72
2021/09/08 06:31:34;;;;;;;28.70;20.73;;;;;;;;;;5006875;28;20218;-72
2021/09/08 06:33:59;;;;;;;30.00;20.52;;;;;;;;;;4997917;28;20187;-72
2021/09/08 06:36:24;;;;;;;29.40;19.25;;;;;;;;;;4990496;28;20200;-72
2021/09/08 06:38:50;;;;;;;27.35;18.80;;;;;;;;;;5001315;28;20186;-73
2021/09/08 06:41:16;;;;;;;28.48;19.38;;;;;;;;;;4995384;28;20245;-72
2021/09/08 06:43:41;;;;;;;28.90;19.80;;;;;;;;;;5004262;28;20182;-73
2021/09/08 06:46:07;;;;;;;28.90;19.20;;;;;;;;;;4997348;28;20360;-71
2021/09/08 06:48:32;;;;;;;24.60;18.25;;;;;;;;;;4999223;28;20226;-72
2021/09/08 06:50:57;;;;;;;26.08;18.67;;;;;;;;;;4989645;28;20628;-72
2021/09/08 06:53:23;;;;;;;25.70;18.45;;;;;;;;;;4994072;28;20203;-71
2021/09/08 06:55:48;;;;;;;26.13;17.08;;;;;;;;;;4988695;28;20209;-72
2021/09/08 06:58:13;;;;;;;24.55;17.45;;;;;;;;;;4994450;28;20210;-72
2021/09/08 07:00:39;;;;;;;22.85;16.73;;;;;;;;;;4990006;28;20190;-71
2021/09/08 07:03:04;;;;;;;28.27;18.17;;;;;;;;;;4992564;28;20222;-70
2021/09/08 07:05:29;;;;;;;25.25;17.75;;;;;;;;;;4995994;28;20311;-72
2021/09/08 07:07:55;;;;;;;22.95;17.17;;;;;;;;;;4985702;28;20244;-72
2021/09/08 07:10:20;;;;;;;24.23;17.50;;;;;;;;;;4994897;28;20225;-70
2021/09/08 07:12:45;;;;;;;26.13;17.63;;;;;;;;;;4989945;28;20237;-72
2021/09/08 07:15:11;;;;;;;23.65;16.63;;;;;;;;;;4996194;28;20196;-72
2021/09/08 07:17:37;;;;;;;24.42;17.10;;;;;;;;;;4990266;28;20269;-71
2021/09/08 07:20:02;;;;;;;23.85;16.50;;;;;;;;;;5001375;28;20252;-72
2021/09/08 07:22:28;;;;;;;22.20;15.35;;;;;;;;;;4987578;28;20194;-70
2021/09/08 07:24:53;;;;;;;23.60;14.98;;;;;;;;;;4995724;28;20559;-72
2021/09/08 07:27:18;;;;;;;25.58;15.20;;;;;;;;;;4989466;28;20215;-73
2021/09/08 07:29:44;;;;;;;20.83;15.30;;;;;;;;;;4995199;28;20635;-71
2021/09/08 07:32:09;;;;;;;22.85;15.27;;;;;;;;;;4995542;28;20225;-72
2021/09/08 07:34:35;;;;;;;21.67;13.02;;;;;;;;;;4989524;28;20628;-72
2021/09/08 07:37:00;;;;;;;24.77;14.18;;;;;;;;;;4996885;28;20191;-73
2021/09/08 07:39:26;;;;;;;19.38;11.95;;;;;;;;;;4989245;28;20670;-73
2021/09/08 07:41:52;;;;;;;18.88;12.98;;;;;;;;;;4995040;28;20194;-74
2021/09/08 07:44:17;;;;;;;20.35;13.05;;;;;;;;;;4989867;28;20187;-73
2021/09/08 07:46:43;;;;;;;17.45;12.38;;;;;;;;;;4994329;28;20675;-72
2021/09/08 07:49:08;;;;;;;17.95;12.48;;;;;;;;;;4991680;28;20226;-73
2021/09/08 07:51:34;;;;;;;17.27;12.80;;;;;;;;;;4996260;28;20606;-73
2021/09/08 07:53:59;;;;;;;17.73;12.23;;;;;;;;;;4987428;28;20746;-72
2021/09/08 07:56:25;;;;;;;18.08;11.85;;;;;;;;;;4998368;28;20190;-72
2021/09/08 07:58:51;;;;;;;18.73;12.75;;;;;;;;;;4986943;28;20206;-71
2021/09/08 08:01:16;;;;;;;18.77;12.02;;;;;;;;;;4997212;28;20541;-72
2021/09/08 08:03:41;;;;;;;20.20;12.10;;;;;;;;;;5000284;28;20240;-72
2021/09/08 08:06:07;;;;;;;16.45;12.43;;;;;;;;;;4988752;28;20230;-72
2021/09/08 08:08:32;;;;;;;16.15;11.05;;;;;;;;;;4995440;28;20237;-73
2021/09/08 08:10:57;;;;;;;18.25;12.98;;;;;;;;;;4987830;28;20191;-71
2021/09/08 08:13:23;;;;;;;17.33;11.80;;;;;;;;;;4998105;28;20591;-72
2021/09/08 08:15:48;;;;;;;20.50;11.68;;;;;;;;;;4991493;28;20191;-72
2021/09/08 08:18:14;;;;;;;16.02;11.80;;;;;;;;;;4993046;28;20716;-71
2021/09/08 08:20:40;;;;;;;17.63;11.95;;;;;;;;;;4989516;28;20219;-72
2021/09/08 08:23:05;;;;;;;16.20;11.48;;;;;;;;;;4997638;28;20174;-72
2021/09/08 08:25:31;;;;;;;16.35;12.05;;;;;;;;;;4988926;28;20202;-73
2021/09/08 08:27:58;;;;;;;16.27;11.43;;;;;;;;;;4996543;28;20238;-71
2021/09/08 08:30:24;;;;;;;19.25;11.77;;;;;;;;;;4987211;28;20277;-72
2021/09/08 08:32:49;;;;;;;16.17;11.40;;;;;;;;;;4995390;28;21351;-71
2021/09/08 08:35:16;;;;;;;15.82;11.48;;;;;;;;;;4995868;28;20568;-71
2021/09/08 08:37:41;;;;;;;18.77;11.93;;;;;;;;;;4988598;28;20708;-72
2021/09/08 08:40:09;;;;;;;17.65;12.15;;;;;;;;;;4994683;28;20199;-73
2021/09/08 08:42:34;;;;;;;19.02;11.85;;;;;;;;;;4986995;28;20252;-73
2021/09/08 08:45:00;;;;;;;16.85;12.38;;;;;;;;;;4995222;28;20194;-73
2021/09/08 08:47:26;;;;;;;17.50;11.93;;;;;;;;;;4984881;28;20662;-71
2021/09/08 08:49:52;;;;;;;20.02;12.05;;;;;;;;;;4994446;28;20194;-71
2021/09/08 08:52:18;;;;;;;16.60;11.77;;;;;;;;;;4986963;28;20705;-72
2021/09/08 08:54:44;;;;;;;15.95;11.95;;;;;;;;;;4997992;28;20282;-73
2021/09/08 08:57:11;;;;;;;20.77;12.10;;;;;;;;;;4992802;28;20562;-73
2021/09/08 08:59:38;;;;;;;15.50;11.50;;;;;;;;;;4997216;28;20187;-72
2021/09/08 09:02:22;;;;;;;16.67;11.85;;;;;;;;;;4985706;28;20279;-72
2021/09/08 09:04:49;;;;;;;21.20;12.43;;;;;;;;;;4997786;28;20266;-72
2021/09/08 09:07:35;;;;;;;16.80;11.80;;;;;;;;;;4991050;28;20324;-73
2021/09/08 09:10:04;;;;;;;17.88;11.27;;;;;;;;;;4998110;28;20187;-73
2021/09/08 09:12:35;;;;;;;14.13;10.60;;;;;;;;;;4993212;28;20226;-72
2021/09/08 09:15:05;;;;;;;14.15;10.57;;;;;;;;;;4998278;28;20687;-73
2021/09/08 09:17:33;;;;;;;17.17;10.77;;;;;;;;;;5000977;28;20189;-71
2021/09/08 09:20:03;;;;;;;17.02;11.30;;;;;;;;;;4988896;28;20798;-74
2021/09/08 09:23:02;;;;;;;16.85;11.25;;;;;;;;;;4996207;28;20650;-72
2021/09/08 09:25:35;;;;;;;15.68;11.60;;;;;;;;;;4982770;28;20202;-72
2021/09/08 09:28:03;;;;;;;18.08;11.00;;;;;;;;;;4998940;28;20275;-72
2021/09/08 09:30:35;;;;;;;12.02;10.00;;;;;;;;;;4987394;28;20210;-72
2021/09/08 09:33:01;;;;;;;15.50;10.50;;;;;;;;;;4998977;28;20715;-73
2021/09/08 09:35:29;;;;;;;17.48;10.43;;;;;;;;;;4988694;28;20226;-73
2021/09/08 09:37:57;;;;;;;13.80;10.68;;;;;;;;;;4995916;28;20193;-73
2021/09/08 09:40:26;;;;;;;14.50;10.60;;;;;;;;;;4988563;28;20191;-74
2021/09/08 09:42:52;;;;;;;15.60;10.65;;;;;;;;;;4997124;28;21043;-72
2021/09/08 09:45:18;;;;;;;14.90;10.25;;;;;;;;;;4989736;28;20182;-73
2021/09/08 09:47:47;;;;;;;13.63;10.70;;;;;;;;;;4997543;28;20211;-72
2021/09/08 09:50:18;;;;;;;15.90;10.13;;;;;;;;;;4988191;28;20238;-74
2021/09/08 09:52:48;;;;;;;14.60;10.45;;;;;;;;;;4996286;28;20296;-72
2021/09/08 09:55:13;;;;;;;13.88;9.65;;;;;;;;;;4986591;28;20179;-72
2021/09/08 09:57:40;;;;;;;12.73;9.15;;;;;;;;;;4999600;28;20230;-74
2021/09/08 10:00:06;;;;;;;15.75;9.02;;;;;;;;;;4992234;28;20226;-73
2021/09/08 10:02:32;;;;;;;14.32;9.57;;;;;;;;;;4998433;28;20273;-73
2021/09/08 10:04:59;;;;;;;13.23;8.68;;;;;;;;;;4999085;28;20670;-72
2021/09/08 10:07:25;;;;;;;12.63;9.02;;;;;;;;;;4987164;28;20246;-73
2021/09/08 10:09:59;;;;;;;9.90;8.30;;;;;;;;;;4995376;28;20195;-73
2021/09/08 10:12:32;;;;;;;12.98;9.88;;;;;;;;;;4990816;28;20190;-73
2021/09/08 10:15:00;;;;;;;16.45;10.38;;;;;;;;;;4997927;28;20203;-74
2021/09/08 10:17:26;;;;;;;12.80;9.50;;;;;;;;;;4988988;28;20619;-73
2021/09/08 10:20:02;;;;;;;14.50;9.40;;;;;;;;;;4998254;28;20186;-74
2021/09/08 10:22:27;;;;;;;11.50;9.00;;;;;;;;;;4989822;28;20515;-74
2021/09/08 10:24:53;;;;;;;15.35;9.85;;;;;;;;;;4999875;28;20215;-71
2021/09/08 10:27:22;;;;;;;15.40;9.50;;;;;;;;;;4988411;28;20210;-71
2021/09/08 10:29:51;;;;;;;15.77;9.95;;;;;;;;;;4995291;28;20199;-73
2021/09/08 10:32:17;;;;;;;14.18;9.10;;;;;;;;;;4990162;28;20902;-73
2021/09/08 10:34:43;;;;;;;16.55;9.93;;;;;;;;;;4996618;28;20191;-74
2021/09/08 10:37:10;;;;;;;11.57;9.02;;;;;;;;;;4988025;28;21188;-74
2021/09/08 10:39:37;;;;;;;15.02;9.30;;;;;;;;;;4995909;28;20190;-74
2021/09/08 10:42:02;;;;;;;14.00;8.75;;;;;;;;;;4999082;28;20623;-72
2021/09/08 10:44:51;;;;;;;13.50;8.80;;;;;;;;;;4988798;28;20281;-71
2021/09/08 10:47:34;;;;;;;15.00;8.60;;;;;;;;;;4994439;28;20241;-73
2021/09/08 10:50:00;;;;;;;10.75;8.27;;;;;;;;;;4994809;28;20749;-74
2021/09/08 10:52:35;;;;;;;11.10;8.25;;;;;;;;;;4994122;28;20195;-74
2021/09/08 10:55:00;;;;;;;11.50;8.57;;;;;;;;;;4989305;28;20650;-72
2021/09/08 10:57:44;;;;;;;13.38;9.35;;;;;;;;;;4991937;28;20195;-73
2021/09/08 11:00:34;;;;;;;14.32;8.82;;;;;;;;;;4989002;28;20203;-74
2021/09/08 11:03:00;;;;;;;12.68;8.32;;;;;;;;;;4998674;28;20195;-74
2021/09/08 11:05:26;;;;;;;12.30;7.95;;;;;;;;;;4987929;28;20243;-74
2021/09/08 11:07:52;;;;;;;11.25;8.18;;;;;;;;;;4996355;28;20209;-74
2021/09/08 11:10:26;;;;;;;10.48;8.40;;;;;;;;;;4987966;28;20639;-74
2021/09/08 11:12:54;;;;;;;12.32;8.80;;;;;;;;;;4995725;28;20212;-73
2021/09/08 11:15:34;;;;;;;10.57;8.20;;;;;;;;;;4986002;28;20199;-74
2021/09/08 11:17:59;;;;;;;15.57;8.48;;;;;;;;;;4997268;28;20183;-73
2021/09/08 11:20:25;;;;;;;12.93;8.40;;;;;;;;;;4986713;28;20565;-74
2021/09/08 11:23:10;;;;;;;13.68;8.68;;;;;;;;;;4993462;28;20257;-74
2021/09/08 11:25:38;;;;;;;11.25;8.48;;;;;;;;;;4988774;28;20285;-74
2021/09/08 11:28:05;;;;;;;11.98;9.15;;;;;;;;;;4995689;28;20222;-73
2021/09/08 11:30:35;;;;;;;12.40;9.65;;;;;;;;;;4987161;28;20559;-73
2021/09/08 11:33:03;;;;;;;15.82;9.10;;;;;;;;;;4996081;28;20286;-74
2021/09/08 11:35:45;;;;;;;12.82;8.68;;;;;;;;;;4986540;28;20651;-74
2021/09/08 11:38:28;;;;;;;10.15;8.77;;;;;;;;;;4996283;28;20198;-73
2021/09/08 11:40:59;;;;;;;9.85;7.97;;;;;;;;;;4986467;28;20179;-74
2021/09/08 11:43:43;;;;;;;11.80;7.97;;;;;;;;;;4995190;28;20202;-74
2021/09/08 11:46:26;;;;;;;12.93;7.93;;;;;;;;;;5001316;28;20191;-73
2021/09/08 11:49:02;;;;;;;8.35;7.47;;;;;;;;;;4994459;28;20191;-74
2021/09/08 11:51:28;;;;;;;13.95;8.40;;;;;;;;;;4988014;28;20198;-74
2021/09/08 11:53:55;;;;;;;10.23;7.65;;;;;;;;;;4995491;28;20184;-74
2021/09/08 11:56:22;;;;;;;8.88;7.43;;;;;;;;;;4990518;28;20194;-74
2021/09/08 11:58:56;;;;;;;11.10;7.88;;;;;;;;;;4992849;28;20203;-74
2021/09/08 12:01:22;;;;;;;11.63;7.22;;;;;;;;;;4993094;28;20182;-74
2021/09/08 12:03:53;;;;;;;9.20;7.55;;;;;;;;;;4985968;28;20193;-74
2021/09/08 12:06:20;;;;;;;9.43;7.75;;;;;;;;;;4990428;28;20199;-75
2021/09/08 12:09:01;;;;;;;9.70;8.38;;;;;;;;;;4987370;28;20706;-74
2021/09/08 12:11:29;;;;;;;12.48;8.43;;;;;;;;;;4993099;28;20191;-74
2021/09/08 12:13:55;;;;;;;11.43;7.95;;;;;;;;;;4984385;28;20665;-74
2021/09/08 12:16:39;;;;;;;10.38;8.13;;;;;;;;;;4996330;28;20195;-72
2021/09/08 12:19:12;;;;;;;14.02;8.48;;;;;;;;;;4987294;28;20625;-74
2021/09/08 12:21:37;;;;;;;10.95;8.48;;;;;;;;;;4998333;28;20964;-73
2021/09/08 12:24:22;;;;;;;9.75;8.18;;;;;;;;;;4987079;28;20229;-74
2021/09/08 12:26:48;;;;;;;11.38;7.88;;;;;;;;;;4994944;28;20219;-74
2021/09/08 12:29:13;;;;;;;12.10;8.35;;;;;;;;;;4988034;28;20190;-72
2021/09/08 12:31:52;;;;;;;9.57;7.97;;;;;;;;;;4993357;28;20195;-73
2021/09/08 12:34:18;;;;;;;10.73;8.07;;;;;;;;;;4985980;28;20298;-74
2021/09/08 12:36:44;;;;;;;12.50;8.27;;;;;;;;;;4995537;28;20199;-74
2021/09/08 12:39:21;;;;;;;10.60;8.15;;;;;;;;;;4987152;28;20221;-71
2021/09/08 12:41:52;;;;;;;11.15;8.57;;;;;;;;;;4994275;28;20393;-70
2021/09/08 12:44:33;;;;;;;11.85;8.35;;;;;;;;;;4985859;28;20198;-72
2021/09/08 12:47:16;;;;;;;12.48;8.45;;;;;;;;;;4996317;28;20669;-74
2021/09/08 12:49:43;;;;;;;10.27;8.40;;;;;;;;;;4985745;28;20196;-71
2021/09/08 12:52:12;;;;;;;13.00;8.75;;;;;;;;;;4994005;28;20520;-74
2021/09/08 12:54:38;;;;;;;11.35;8.35;;;;;;;;;;4988782;28;20187;-74
2021/09/08 12:57:05;;;;;;;13.27;8.57;;;;;;;;;;4994692;28;20770;-74
2021/09/08 12:59:31;;;;;;;10.98;8.77;;;;;;;;;;4992235;28;20195;-75
2021/09/08 13:01:56;;;;;;;12.02;9.38;;;;;;;;;;4987978;28;20229;-73
2021/09/08 13:04:22;;;;;;;11.35;8.55;;;;;;;;;;4992870;28;20230;-74
2021/09/08 13:06:48;;;;;;;10.40;7.88;;;;;;;;;;4984631;28;20211;-72
2021/09/08 13:09:13;;;;;;;12.10;8.15;;;;;;;;;;4993514;28;20266;-71
2021/09/08 13:11:39;;;;;;;9.25;8.18;;;;;;;;;;4985693;28;20187;-73
2021/09/08 13:14:06;;;;;;;11.18;9.02;;;;;;;;;;4993348;28;20241;-74
2021/09/08 13:16:33;;;;;;;9.57;8.18;;;;;;;;;;4991658;28;20282;-74
2021/09/08 13:18:59;;;;;;;9.70;8.30;;;;;;;;;;4994819;28;20511;-74
2021/09/08 13:21:26;;;;;;;11.88;8.93;;;;;;;;;;4990256;28;20245;-74
2021/09/08 13:23:51;;;;;;;9.70;8.70;;;;;;;;;;4991479;28;20280;-74
2021/09/08 13:26:17;;;;;;;10.93;8.57;;;;;;;;;;4986061;28;20666;-74
2021/09/08 13:28:42;;;;;;;10.82;8.30;;;;;;;;;;4994836;28;20202;-74
2021/09/08 13:31:08;;;;;;;13.45;8.45;;;;;;;;;;4985595;28;20182;-74
2021/09/08 13:33:34;;;;;;;12.32;8.23;;;;;;;;;;4992026;28;20242;-74
2021/09/08 13:35:59;;;;;;;10.82;9.20;;;;;;;;;;4995004;28;20171;-73
2021/09/08 13:38:25;;;;;;;10.88;8.75;;;;;;;;;;4983311;28;20194;-73
2021/09/08 13:40:50;;;;;;;11.52;8.13;;;;;;;;;;4992851;28;20187;-74
2021/09/08 13:43:16;;;;;;;11.73;8.38;;;;;;;;;;4985394;28;20221;-73
2021/09/08 13:45:41;;;;;;;9.55;8.02;;;;;;;;;;4993132;28;20237;-74
2021/09/08 13:48:07;;;;;;;9.77;7.85;;;;;;;;;;4985911;28;20686;-75
2021/09/08 13:50:32;;;;;;;11.05;8.18;;;;;;;;;;4991999;28;20280;-75
2021/09/08 13:52:58;;;;;;;12.15;8.00;;;;;;;;;;4991459;28;20615;-74
2021/09/08 13:55:23;;;;;;;10.52;8.38;;;;;;;;;;4995443;28;20198;-74
2021/09/08 13:57:48;;;;;;;10.02;8.63;;;;;;;;;;4987557;28;20202;-73
2021/09/08 14:00:14;;;;;;;11.95;8.52;;;;;;;;;;4995627;28;20653;-74
2021/09/08 14:02:39;;;;;;;10.88;8.23;;;;;;;;;;4993165;28;20257;-74
2021/09/08 14:05:05;;;;;;;13.63;8.95;;;;;;;;;;4991108;28;20238;-72
2021/09/08 14:07:30;;;;;;;12.25;8.65;;;;;;;;;;4996427;28;20214;-74
2021/09/08 14:09:56;;;;;;;10.52;8.50;;;;;;;;;;4992464;28;20281;-75
2021/09/08 14:12:22;;;;;;;11.00;8.75;;;;;;;;;;4996783;28;20224;-73
2021/09/08 14:14:49;;;;;;;8.70;7.80;;;;;;;;;;4993860;28;20591;-74
2021/09/08 14:17:14;;;;;;;11.18;8.15;;;;;;;;;;4995674;28;20618;-75
2021/09/08 14:19:40;;;;;;;10.82;7.93;;;;;;;;;;4989120;28;20210;-73